Time;durP1;ratioP1;P1;durP2;ratioP2;P2;SDS_P1;SDS_P2;PMS_P1;PMS_P2;Temp;Humidity;BMP_temperature;BMP_pressure;BME280_temperature;BME280_humidity;BME280_pressure;Samples;Min_cycle;Max_cycle;Signal;HPM_P1;HPM_P2
2022/11/03 00:01:00;;;;;;;6.40;3.07;;;10.00;99.90;;;;;;5055743;28;20208;-80
2022/11/03 00:03:27;;;;;;;9.00;3.40;;;9.90;99.90;;;;;;5055713;28;20194;-79
2022/11/03 00:06:04;;;;;;;7.33;3.20;;;9.90;99.90;;;;;;5055743;28;20259;-80
2022/11/03 00:08:35;;;;;;;8.70;3.47;;;9.80;99.90;;;;;;5055963;28;20175;-79
2022/11/03 00:11:09;;;;;;;8.23;3.10;;;9.70;99.90;;;;;;5037806;28;20172;-80
2022/11/03 00:13:36;;;;;;;7.47;3.53;;;9.60;99.90;;;;;;5055881;28;20168;-79
2022/11/03 00:16:03;;;;;;;8.87;3.20;;;9.60;99.90;;;;;;5055160;28;20203;-80
2022/11/03 00:18:29;;;;;;;5.17;3.47;;;9.60;99.90;;;;;;5055638;28;20184;-79
2022/11/03 00:21:07;;;;;;;6.53;3.23;;;9.60;99.90;;;;;;5055422;28;20261;-80
2022/11/03 00:23:36;;;;;;;5.97;3.20;;;9.60;99.90;;;;;;5037926;28;20512;-79
2022/11/03 00:26:05;;;;;;;6.27;3.60;;;9.70;99.90;;;;;;5055392;28;20660;-80
2022/11/03 00:28:32;;;;;;;6.03;4.30;;;9.60;99.90;;;;;;5055486;28;20171;-79
2022/11/03 00:31:05;;;;;;;7.77;4.23;;;9.60;99.90;;;;;;5055011;28;20516;-80
2022/11/03 00:33:31;;;;;;;8.67;3.97;;;9.60;99.90;;;;;;5055393;28;20614;-79
2022/11/03 00:36:01;;;;;;;10.37;5.00;;;9.70;99.90;;;;;;5055222;28;20179;-80
2022/11/03 00:38:28;;;;;;;7.77;3.67;;;9.70;99.90;;;;;;5055430;28;20338;-79
2022/11/03 00:40:54;;;;;;;11.17;2.70;;;9.60;99.90;;;;;;5055207;28;20176;-79
2022/11/03 00:43:24;;;;;;;8.43;4.23;;;9.70;99.90;;;;;;5055335;28;20275;-81
2022/11/03 00:45:50;;;;;;;13.57;3.77;;;9.70;99.90;;;;;;5037354;28;20187;-79
2022/11/03 00:48:28;;;;;;;7.10;3.70;;;9.70;99.90;;;;;;5055018;28;20172;-79
2022/11/03 00:51:03;;;;;;;12.17;3.50;;;9.70;99.90;;;;;;5022480;28;20179;-79
2022/11/03 00:53:30;;;;;;;11.30;3.37;;;9.70;99.90;;;;;;5054942;28;20710;-79
2022/11/03 00:55:56;;;;;;;8.17;4.57;;;9.80;99.90;;;;;;5054673;28;20176;-79
2022/11/03 00:58:22;;;;;;;11.60;4.33;;;9.80;99.90;;;;;;5036821;28;20190;-80
2022/11/03 01:00:47;;;;;;;8.10;4.13;;;9.80;99.90;;;;;;5037106;28;20675;-79
2022/11/03 01:03:13;;;;;;;7.17;3.93;;;9.80;99.90;;;;;;5036582;28;20575;-79
2022/11/03 01:08:35;;;;;;;9.60;4.07;;;9.80;99.90;;;;;;5054863;28;20222;-79
2022/11/03 01:11:42;;;;;;;9.50;4.23;;;9.80;99.90;;;;;;5054572;28;20237;-80
2022/11/03 01:14:11;;;;;;;8.20;3.60;;;9.70;99.90;;;;;;5053746;28;20256;-79
2022/11/03 01:16:37;;;;;;;9.43;2.97;;;9.80;99.90;;;;;;5054529;28;20172;-79
2022/11/03 01:19:03;;;;;;;12.03;3.60;;;9.70;99.90;;;;;;5054621;28;20700;-80
2022/11/03 01:21:29;;;;;;;6.37;3.53;;;9.70;99.90;;;;;;5054449;28;20260;-79
2022/11/03 01:23:58;;;;;;;9.53;4.67;;;9.70;99.90;;;;;;5054460;28;20199;-79
2022/11/03 01:26:24;;;;;;;6.80;3.30;;;9.70;99.90;;;;;;5054494;28;20210;-79
2022/11/03 01:28:49;;;;;;;10.50;4.43;;;9.70;99.90;;;;;;5053375;28;20208;-79
2022/11/03 01:31:22;;;;;;;6.90;4.00;;;9.80;99.90;;;;;;5020275;28;20199;-79
2022/11/03 01:33:49;;;;;;;7.83;3.10;;;9.70;99.90;;;;;;5053891;28;20182;-79
2022/11/03 01:36:16;;;;;;;6.93;3.83;;;9.60;99.90;;;;;;5054026;28;20186;-79
2022/11/03 01:38:42;;;;;;;7.07;3.87;;;9.60;99.90;;;;;;5054187;28;20172;-79
2022/11/03 01:41:15;;;;;;;6.13;3.47;;;9.60;99.90;;;;;;5053631;28;20207;-80
2022/11/03 01:43:41;;;;;;;9.03;3.57;;;9.50;99.90;;;;;;5036764;28;20198;-78
2022/11/03 01:46:10;;;;;;;6.27;2.73;;;9.60;99.90;;;;;;5053849;28;20234;-80
2022/11/03 01:49:03;;;;;;;9.13;3.53;;;9.50;99.90;;;;;;5053997;28;20204;-79
2022/11/03 01:51:31;;;;;;;6.43;3.10;;;9.50;99.90;;;;;;5031860;28;20184;-79
2022/11/03 01:54:03;;;;;;;9.40;4.30;;;9.40;99.90;;;;;;5054113;28;20231;-79
2022/11/03 01:56:32;;;;;;;5.37;3.13;;;9.40;99.90;;;;;;5053806;28;20172;-79
2022/11/03 01:58:58;;;;;;;10.23;2.83;;;9.40;99.90;;;;;;5053939;28;20273;-79
2022/11/03 02:01:24;;;;;;;12.07;4.43;;;;;;;;;;5035930;28;20204;-79
2022/11/03 02:03:58;;;;;;;7.33;3.37;;;9.30;99.90;;;;;;5053651;28;20183;-79
2022/11/03 02:06:26;;;;;;;5.87;3.80;;;9.20;99.90;;;;;;5053763;28;20167;-78
2022/11/03 02:09:04;;;;;;;17.00;4.37;;;9.10;99.90;;;;;;5019490;28;20195;-80
2022/11/03 02:14:16;;;;;;;7.43;4.00;;;9.00;99.90;;;;;;5056664;28;20175;-79
2022/11/03 02:16:54;;;;;;;11.43;3.27;;;8.90;99.90;;;;;;5062998;28;20541;-79
2022/11/03 02:19:41;;;;;;;6.57;3.60;;;8.90;99.90;;;;;;5036309;28;20540;-80
2022/11/03 02:22:37;;;;;;;9.80;3.83;;;8.80;99.90;;;;;;5061748;28;20196;-80
2022/11/03 02:25:11;;;;;;;7.53;3.80;;;8.70;99.90;;;;;;5046753;28;20707;-79
2022/11/03 02:27:37;;;;;;;9.23;3.70;;;8.70;99.90;;;;;;5071553;28;20166;-78
2022/11/03 02:30:03;;;;;;;7.77;3.90;;;8.60;99.90;;;;;;5077249;28;20203;-78
2022/11/03 02:32:38;;;;;;;6.57;3.43;;;8.60;99.90;;;;;;5062738;28;20322;-80
2022/11/03 02:35:25;;;;;;;12.30;4.27;;;8.50;99.90;;;;;;5053914;28;20171;-79
2022/11/03 02:37:56;;;;;;;6.30;4.00;;;8.40;99.90;;;;;;5048176;28;20232;-79
2022/11/03 02:40:30;;;;;;;9.27;3.87;;;8.40;99.90;;;;;;5078403;28;20164;-78
2022/11/03 02:42:57;;;;;;;5.57;3.60;;;8.30;99.90;;;;;;5080170;28;20278;-80
2022/11/03 02:45:25;;;;;;;7.77;3.30;;;8.30;99.90;;;;;;5073293;28;20192;-79
2022/11/03 02:47:54;;;;;;;12.10;3.93;;;8.20;99.90;;;;;;5058106;28;20198;-79
2022/11/03 02:50:24;;;;;;;9.93;3.20;;;8.30;99.90;;;;;;5057348;28;20652;-79
2022/11/03 02:52:51;;;;;;;7.77;3.50;;;8.20;99.90;;;;;;5039883;28;20231;-79
2022/11/03 02:55:44;;;;;;;6.23;3.87;;;8.20;99.90;;;;;;5039546;28;20191;-80
2022/11/03 02:58:28;;;;;;;7.43;3.60;;;8.20;99.90;;;;;;5057201;28;20195;-79
2022/11/03 03:01:21;;;;;;;9.80;4.40;;;8.20;99.90;;;;;;5039266;28;20188;-79
2022/11/03 03:03:48;;;;;;;4.00;3.23;;;8.20;99.90;;;;;;5057338;28;20179;-79
2022/11/03 03:06:23;;;;;;;5.53;2.77;;;8.20;99.90;;;;;;5057124;28;20259;-79
2022/11/03 03:08:56;;;;;;;8.77;3.63;;;8.20;99.90;;;;;;5056959;28;20195;-79
2022/11/03 03:11:35;;;;;;;10.30;3.03;;;8.20;99.90;;;;;;5056916;28;20229;-79
2022/11/03 03:14:08;;;;;;;9.03;4.33;;;8.10;99.90;;;;;;5056851;28;20172;-79
2022/11/03 03:16:41;;;;;;;7.23;3.17;;;8.10;99.90;;;;;;5038762;28;20230;-79
2022/11/03 03:19:22;;;;;;;12.40;3.40;;;8.10;99.90;;;;;;5056568;28;20246;-79
2022/11/03 03:21:52;;;;;;;13.13;3.67;;;8.10;99.90;;;;;;5057065;28;20200;-79
2022/11/03 03:24:36;;;;;;;8.63;3.47;;;8.10;99.90;;;;;;5056670;28;20246;-79
2022/11/03 03:27:05;;;;;;;11.57;3.33;;;8.00;99.90;;;;;;5056430;28;20521;-79
2022/11/03 03:29:42;;;;;;;6.93;3.00;;;8.10;99.90;;;;;;5056472;28;20176;-80
2022/11/03 03:32:09;;;;;;;5.17;2.93;;;8.10;99.90;;;;;;5056550;28;20678;-79
2022/11/03 03:34:38;;;;;;;8.33;2.67;;;8.00;99.90;;;;;;5056314;28;20188;-79
2022/11/03 03:37:06;;;;;;;5.07;2.53;;;7.90;99.90;;;;;;5056374;28;20203;-79
2022/11/03 03:39:36;;;;;;;6.87;4.13;;;7.90;99.90;;;;;;5038541;28;20175;-79
2022/11/03 03:42:03;;;;;;;7.37;3.30;;;7.90;99.90;;;;;;5037969;28;20204;-79
2022/11/03 03:44:30;;;;;;;9.30;3.27;;;7.90;99.90;;;;;;5055905;28;20215;-79
2022/11/03 03:47:00;;;;;;;6.77;3.03;;;7.80;99.90;;;;;;5056500;28;20686;-78
2022/11/03 03:49:26;;;;;;;6.53;2.90;;;;;;;;;;5056133;28;20204;-79
2022/11/03 03:51:52;;;;;;;7.07;3.13;;;7.80;99.90;;;;;;5055495;28;20543;-79
2022/11/03 03:54:17;;;;;;;5.40;3.13;;;7.70;99.90;;;;;;5038052;28;20239;-79
2022/11/03 03:57:01;;;;;;;5.53;3.47;;;7.70;99.90;;;;;;5038223;28;20179;-80
2022/11/03 03:59:27;;;;;;;3.70;2.90;;;7.60;99.90;;;;;;5038175;28;20168;-80
2022/11/03 04:01:53;;;;;;;4.07;2.47;;;7.60;99.90;;;;;;5055929;28;20226;-79
2022/11/03 04:04:19;;;;;;;6.33;3.80;;;7.60;99.90;;;;;;5055590;28;20206;-78
2022/11/03 04:06:44;;;;;;;6.37;3.27;;;7.60;99.90;;;;;;5055773;28;20194;-79
2022/11/03 04:09:10;;;;;;;10.10;3.37;;;7.60;99.90;;;;;;5056008;28;20520;-79
2022/11/03 04:22:41;;;;;;;5.27;3.03;;;7.50;99.90;;;;;;5055226;28;20286;-80
2022/11/03 04:25:07;;;;;;;5.73;3.43;;;7.50;99.90;;;;;;5037500;28;20211;-80
2022/11/03 04:27:35;;;;;;;9.70;3.30;;;7.50;99.90;;;;;;5037583;28;20207;-80
2022/11/03 04:30:18;;;;;;;9.57;2.90;;;7.50;99.90;;;;;;5055421;28;20182;-79
2022/11/03 04:32:47;;;;;;;8.87;3.13;;;7.50;99.90;;;;;;5055299;28;20193;-80
2022/11/03 04:35:19;;;;;;;4.33;2.50;;;7.50;99.90;;;;;;5055410;28;20187;-80
2022/11/03 04:37:47;;;;;;;5.40;3.03;;;7.60;99.90;;;;;;5037080;28;20533;-80
2022/11/03 04:40:15;;;;;;;5.87;3.20;;;7.70;99.90;;;;;;5055563;28;20264;-80
2022/11/03 04:42:41;;;;;;;7.47;2.80;;;7.70;99.90;;;;;;5037079;28;20199;-80
2022/11/03 04:45:33;;;;;;;7.67;2.70;;;7.60;99.90;;;;;;5055650;28;20191;-79
2022/11/03 04:48:05;;;;;;;5.03;3.33;;;7.50;99.90;;;;;;5051172;28;20211;-80
2022/11/03 04:50:31;;;;;;;5.63;3.33;;;7.50;99.90;;;;;;5055046;28;20171;-81
2022/11/03 04:52:58;;;;;;;4.93;2.43;;;7.40;99.90;;;;;;5054003;28;20235;-81
2022/11/03 04:55:25;;;;;;;7.77;3.30;;;7.40;99.90;;;;;;5055062;28;20171;-80
2022/11/03 04:57:56;;;;;;;4.57;3.33;;;7.40;99.90;;;;;;5053987;28;20617;-80
2022/11/03 05:00:22;;;;;;;4.87;2.87;;;7.30;99.90;;;;;;5054536;28;20175;-80
2022/11/03 05:02:50;;;;;;;15.07;4.07;;;7.40;99.90;;;;;;5054267;28;20660;-80
2022/11/03 05:05:16;;;;;;;12.10;3.37;;;7.30;99.90;;;;;;5054819;28;20180;-80
2022/11/03 05:07:42;;;;;;;6.87;3.30;;;7.30;99.90;;;;;;5054094;28;20175;-80
2022/11/03 05:10:15;;;;;;;5.93;2.43;;;7.20;99.90;;;;;;5053644;28;20633;-80
2022/11/03 05:12:42;;;;;;;9.73;3.13;;;7.20;99.90;;;;;;5054084;28;20168;-80
2022/11/03 05:15:25;;;;;;;3.67;2.90;;;7.30;99.90;;;;;;5054374;28;20275;-80
2022/11/03 05:17:51;;;;;;;4.47;2.97;;;7.20;99.90;;;;;;5036074;28;20205;-79
2022/11/03 05:20:30;;;;;;;5.07;2.83;;;7.20;99.90;;;;;;5053666;28;20314;-80
2022/11/03 05:22:56;;;;;;;5.30;2.73;;;7.20;99.90;;;;;;5053339;28;20210;-79
2022/11/03 05:25:43;;;;;;;3.77;2.57;;;7.10;99.90;;;;;;5035451;28;20191;-79
2022/11/03 05:28:22;;;;;;;4.33;3.30;;;7.10;99.90;;;;;;5052847;28;20679;-79
2022/11/03 05:30:48;;;;;;;3.70;2.73;;;7.10;99.90;;;;;;5052221;28;20164;-81
2022/11/03 05:33:48;;;;;;;11.00;3.73;;;7.00;99.90;;;;;;5051773;28;20180;-81
2022/11/03 05:36:18;;;;;;;5.30;2.87;;;7.00;99.90;;;;;;5008999;28;20657;-80
2022/11/03 05:38:44;;;;;;;5.37;3.23;;;7.00;99.90;;;;;;5052854;28;20160;-80
2022/11/03 05:41:29;;;;;;;4.60;2.77;;;7.00;99.90;;;;;;5034441;28;20691;-81
2022/11/03 05:44:13;;;;;;;5.93;2.40;;;7.00;99.90;;;;;;5052407;28;20199;-80
2022/11/03 05:46:39;;;;;;;6.27;2.40;;;7.00;99.90;;;;;;5034423;28;20199;-82
2022/11/03 05:49:06;;;;;;;4.33;1.77;;;7.00;99.90;;;;;;5017877;28;20203;-80
2022/11/03 05:51:36;;;;;;;7.13;3.27;;;7.00;99.90;;;;;;5052066;28;20207;-81
2022/11/03 05:54:05;;;;;;;3.97;2.37;;;7.00;99.90;;;;;;5051691;28;20234;-80
2022/11/03 05:56:32;;;;;;;3.67;2.63;;;7.00;99.90;;;;;;5052261;28;20175;-81
2022/11/03 05:58:58;;;;;;;7.40;2.80;;;7.00;99.90;;;;;;5051724;28;20411;-81
2022/11/03 06:01:39;;;;;;;5.93;3.33;;;7.00;99.90;;;;;;5051727;28;20200;-80
2022/11/03 06:04:40;;;;;;;3.80;3.00;;;7.00;99.90;;;;;;5052301;28;20630;-81
2022/11/03 06:07:22;;;;;;;9.00;2.70;;;7.00;99.90;;;;;;4970702;28;20196;-80
2022/11/03 06:09:47;;;;;;;2.80;2.43;;;7.00;99.90;;;;;;5043318;28;20191;-79
2022/11/03 06:12:18;;;;;;;4.60;2.80;;;7.00;99.90;;;;;;5051807;28;20194;-79
2022/11/03 06:14:44;;;;;;;3.70;2.73;;;7.00;99.90;;;;;;5052381;28;20168;-80
2022/11/03 06:17:27;;;;;;;6.07;3.07;;;7.00;99.90;;;;;;5052215;28;20200;-80
2022/11/03 06:19:56;;;;;;;6.00;3.67;;;7.00;99.90;;;;;;5052689;28;20160;-80
2022/11/03 06:22:25;;;;;;;8.23;3.13;;;6.90;99.90;;;;;;5034728;28;20245;-79
2022/11/03 06:24:58;;;;;;;9.40;3.63;;;6.90;99.90;;;;;;5052626;28;20236;-80
2022/11/03 06:27:27;;;;;;;16.37;4.30;;;6.90;99.90;;;;;;5052559;28;20160;-80
2022/11/03 06:29:57;;;;;;;4.53;3.33;;;7.00;99.90;;;;;;5052331;28;20183;-80
2022/11/03 06:32:24;;;;;;;8.73;2.97;;;7.00;99.90;;;;;;5052440;28;20286;-80
2022/11/03 06:34:52;;;;;;;6.27;3.97;;;7.00;99.90;;;;;;5052569;28;20700;-81
2022/11/03 06:37:25;;;;;;;5.07;3.57;;;7.00;99.90;;;;;;5052341;28;20621;-82
2022/11/03 06:39:58;;;;;;;5.50;2.73;;;7.10;99.90;;;;;;5053444;28;20176;-80
2022/11/03 06:42:28;;;;;;;10.50;3.17;;;7.10;99.90;;;;;;5053723;28;20191;-80
2022/11/03 06:44:53;;;;;;;8.43;3.47;;;7.30;99.90;;;;;;5053324;28;20176;-80
2022/11/03 06:47:25;;;;;;;3.17;2.90;;;7.40;99.90;;;;;;5018317;28;20183;-81
2022/11/03 06:50:01;;;;;;;5.07;3.13;;;7.50;99.90;;;;;;5052333;28;20171;-81
2022/11/03 06:52:38;;;;;;;4.60;3.33;;;7.50;99.90;;;;;;5051762;28;20202;-81
2022/11/03 06:55:06;;;;;;;12.10;3.43;;;7.50;99.90;;;;;;5051630;28;20253;-80
2022/11/03 06:57:37;;;;;;;11.30;2.60;;;7.60;99.90;;;;;;5051978;28;20211;-80
2022/11/03 07:00:29;;;;;;;9.20;3.43;;;7.70;99.90;;;;;;5051624;28;20160;-81
2022/11/03 07:03:24;;;;;;;3.87;2.57;;;7.80;99.90;;;;;;5047526;28;20276;-81
2022/11/03 07:05:49;;;;;;;7.80;3.23;;;7.90;99.90;;;;;;5051912;28;20222;-80
2022/11/03 07:08:26;;;;;;;5.57;2.67;;;8.00;99.90;;;;;;5051966;28;20176;-81
2022/11/03 07:11:17;;;;;;;5.67;2.63;;;8.10;99.90;;;;;;5051569;28;20222;-81
2022/11/03 07:13:43;;;;;;;5.30;2.60;;;8.20;99.90;;;;;;5041677;28;20196;-81
2022/11/03 07:16:26;;;;;;;3.23;2.27;;;8.30;99.90;;;;;;5033470;28;20187;-81
2022/11/03 07:18:52;;;;;;;5.60;2.80;;;8.40;99.90;;;;;;5033657;28;20176;-82
2022/11/03 07:21:33;;;;;;;2.17;1.93;;;8.50;99.90;;;;;;5032940;28;20215;-82
2022/11/03 07:24:01;;;;;;;6.90;2.17;;;8.50;99.90;;;;;;5051505;28;20620;-81
2022/11/03 07:26:27;;;;;;;2.23;2.00;;;8.60;99.90;;;;;;5052179;28;20241;-82
2022/11/03 07:28:54;;;;;;;7.53;3.63;;;8.70;99.90;;;;;;5054734;28;20298;-83
2022/11/03 07:31:23;;;;;;;3.77;2.43;;;8.70;99.90;;;;;;5036868;28;20207;-84
2022/11/03 07:33:49;;;;;;;11.80;3.60;;;8.80;99.90;;;;;;5054468;28;20175;-81
2022/11/03 07:36:19;;;;;;;11.47;2.93;;;8.80;99.90;;;;;;5020901;28;20236;-81
2022/11/03 07:38:49;;;;;;;3.93;2.10;;;8.90;99.90;;;;;;5037270;28;20175;-82
2022/11/03 07:41:21;;;;;;;6.00;2.63;;;9.00;99.90;;;;;;5055189;28;20215;-81
2022/11/03 07:43:57;;;;;;;4.03;2.67;;;9.10;99.90;;;;;;5054484;28;20195;-82
2022/11/03 07:46:24;;;;;;;5.80;2.60;;;9.20;99.90;;;;;;5054572;28;20655;-81
2022/11/03 07:48:58;;;;;;;7.57;2.50;;;9.20;99.90;;;;;;5054512;28;20176;-82
2022/11/03 07:51:35;;;;;;;9.63;2.33;;;9.30;99.90;;;;;;5036740;28;20187;-82
2022/11/03 07:54:11;;;;;;;5.10;2.57;;;9.30;99.90;;;;;;5054131;28;20307;-81
2022/11/03 07:57:05;;;;;;;2.27;2.07;;;9.30;99.90;;;;;;5054419;28;20167;-82
2022/11/03 07:59:47;;;;;;;6.33;2.90;;;9.40;99.90;;;;;;5035662;28;20184;-81
2022/11/03 08:02:19;;;;;;;6.33;2.30;;;9.50;99.90;;;;;;5053954;28;20203;-82
2022/11/03 08:04:44;;;;;;;4.07;2.27;;;9.50;99.90;;;;;;5036419;28;20511;-82
2022/11/03 08:07:10;;;;;;;8.33;3.07;;;9.50;99.90;;;;;;5053998;28;20684;-81
2022/11/03 08:09:36;;;;;;;3.87;2.30;;;9.60;99.90;;;;;;5054282;28;20550;-80
2022/11/03 08:12:01;;;;;;;6.07;2.80;;;9.60;99.90;;;;;;5035921;28;20753;-80
2022/11/03 08:14:27;;;;;;;6.10;2.23;;;9.70;99.90;;;;;;5036371;28;20690;-81
2022/11/03 08:16:53;;;;;;;5.03;2.30;;;9.80;99.90;;;;;;5036923;28;20191;-82
2022/11/03 08:19:19;;;;;;;5.13;2.77;;;;;;;;;;5037045;28;20403;-83
2022/11/03 08:21:44;;;;;;;3.50;2.07;;;9.90;99.90;;;;;;5054697;28;20199;-81
2022/11/03 08:24:10;;;;;;;6.83;2.20;;;9.90;99.90;;;;;;5055655;28;20188;-81
2022/11/03 08:26:36;;;;;;;3.27;1.80;;;10.00;99.90;;;;;;5055590;28;20211;-82
2022/11/03 08:29:01;;;;;;;7.57;1.92;;;10.10;99.90;;;;;;5020513;28;20199;-82
2022/11/03 08:31:27;;;;;;;2.50;2.13;;;10.10;99.90;;;;;;5054895;28;20191;-81
2022/11/03 08:33:53;;;;;;;8.63;1.73;;;10.20;99.90;;;;;;5039299;28;20241;-80
2022/11/03 08:36:19;;;;;;;3.80;2.20;;;10.30;99.90;;;;;;5055899;28;20211;-81
2022/11/03 08:38:45;;;;;;;2.25;2.00;;;10.40;99.90;;;;;;5054708;28;20192;-81
2022/11/03 08:41:11;;;;;;;5.88;1.83;;;10.40;99.90;;;;;;5037813;28;20187;-81
2022/11/03 08:43:36;;;;;;;2.00;1.30;;;10.50;99.90;;;;;;5064384;28;20640;-81
2022/11/03 08:46:02;;;;;;;4.30;1.40;;;10.60;99.90;;;;;;5066128;28;20544;-82
2022/11/03 08:48:27;;;;;;;2.50;1.63;;;10.60;99.90;;;;;;5054273;28;20180;-81
2022/11/03 08:50:54;;;;;;;3.63;1.40;;;10.70;99.90;;;;;;5074495;28;20227;-81
2022/11/03 08:53:24;;;;;;;4.72;1.48;;;10.70;99.90;;;;;;5078833;28;20283;-82
2022/11/03 08:55:50;;;;;;;2.57;1.33;;;10.80;99.90;;;;;;5062524;28;20167;-83
2022/11/03 08:58:16;;;;;;;3.88;1.90;;;10.90;99.90;;;;;;5078741;28;20167;-82
2022/11/03 09:00:42;;;;;;;6.07;1.80;;;11.00;99.90;;;;;;5041798;28;20192;-82
2022/11/03 09:03:07;;;;;;;2.30;2.08;;;11.00;99.90;;;;;;5054624;28;20210;-81
2022/11/03 09:05:33;;;;;;;4.50;2.10;;;11.00;99.90;;;;;;5039926;28;20188;-81
2022/11/03 09:07:59;;;;;;;3.78;1.58;;;11.10;99.90;;;;;;5068053;28;20187;-83
2022/11/03 09:10:25;;;;;;;2.90;1.58;;;11.10;99.90;;;;;;5055634;28;20172;-81
2022/11/03 09:12:51;;;;;;;2.92;1.63;;;11.20;99.90;;;;;;5058930;28;20184;-82
2022/11/03 09:15:17;;;;;;;5.00;1.88;;;11.30;99.90;;;;;;5066358;28;20184;-82
2022/11/03 09:17:43;;;;;;;4.25;1.52;;;11.40;99.90;;;;;;5044218;28;20199;-81
2022/11/03 09:20:10;;;;;;;2.92;1.30;;;11.40;99.90;;;;;;5059007;28;20180;-81
2022/11/03 09:22:36;;;;;;;6.60;2.03;;;11.50;99.90;;;;;;5054177;28;20240;-81
2022/11/03 09:25:01;;;;;;;4.65;2.00;;;11.40;99.90;;;;;;5053857;28;20184;-81
2022/11/03 09:27:27;;;;;;;2.28;1.80;;;11.40;99.90;;;;;;5035702;28;20274;-80
2022/11/03 09:29:53;;;;;;;4.68;1.85;;;11.30;99.90;;;;;;5036110;28;20188;-80
2022/11/03 09:32:19;;;;;;;2.90;1.70;;;11.40;99.90;;;;;;5035131;28;20195;-81
2022/11/03 09:34:44;;;;;;;5.00;1.35;;;11.50;99.90;;;;;;5053189;28;20213;-81
2022/11/03 09:37:10;;;;;;;4.28;1.75;;;11.60;99.90;;;;;;5052657;28;20545;-81
2022/11/03 09:39:36;;;;;;;2.65;1.50;;;11.70;99.90;;;;;;5052476;28;20183;-81
2022/11/03 09:42:03;;;;;;;5.65;1.55;;;11.60;99.90;;;;;;5052419;28;20203;-79
2022/11/03 09:44:32;;;;;;;4.60;0.77;;;11.60;99.90;;;;;;5052822;28;20718;-80
2022/11/03 09:46:59;;;;;;;3.97;1.20;;;11.70;99.90;;;;;;5052859;28;20187;-80
2022/11/03 09:49:25;;;;;;;2.42;1.40;;;11.90;99.90;;;;;;5034285;28;20187;-81
2022/11/03 09:51:52;;;;;;;2.15;1.35;;;12.10;99.90;;;;;;5035009;28;20192;-81
2022/11/03 09:54:18;;;;;;;3.65;1.95;;;12.20;99.90;;;;;;5052204;28;20602;-81
2022/11/03 09:56:46;;;;;;;4.90;1.75;;;12.30;99.90;;;;;;5034860;28;20179;-82
2022/11/03 09:59:22;;;;;;;2.40;1.30;;;12.40;99.90;;;;;;5052522;28;20176;-80
2022/11/03 10:01:52;;;;;;;1.10;1.00;;;12.60;99.90;;;;;;5034678;28;20187;-81
2022/11/03 10:04:28;;;;;;;1.42;1.33;;;12.70;99.90;;;;;;5051947;28;20212;-81
2022/11/03 10:06:55;;;;;;;2.83;1.17;;;11.80;99.90;;;;;;5034149;28;20195;-81
2022/11/03 10:09:22;;;;;;;3.75;1.05;;;12.90;99.90;;;;;;5051989;28;20259;-81
2022/11/03 10:11:50;;;;;;;5.90;1.48;;;13.20;99.90;;;;;;5034653;28;20286;-82
2022/11/03 10:14:17;;;;;;;2.17;1.35;;;13.20;99.90;;;;;;5052799;28;20180;-80
2022/11/03 10:16:50;;;;;;;1.33;1.20;;;13.20;99.90;;;;;;5052942;28;20183;-80
2022/11/03 10:19:17;;;;;;;3.58;1.77;;;13.30;99.90;;;;;;5052468;28;20206;-80
2022/11/03 10:21:44;;;;;;;4.80;1.50;;;13.30;99.90;;;;;;5034778;28;20363;-80
2022/11/03 10:24:13;;;;;;;2.85;1.50;;;13.40;99.90;;;;;;5052007;28;20191;-81
2022/11/03 10:26:57;;;;;;;4.07;1.70;;;13.50;99.90;;;;;;5052082;28;20344;-81
2022/11/03 10:29:25;;;;;;;2.38;1.33;;;13.50;99.90;;;;;;5052534;28;20656;-81
2022/11/03 10:31:53;;;;;;;12.90;2.75;;;13.50;99.90;;;;;;5034412;28;20186;-81
2022/11/03 10:34:31;;;;;;;1.92;1.30;;;13.30;99.90;;;;;;5052253;28;20629;-81
2022/11/03 10:37:19;;;;;;;5.57;1.65;;;13.40;99.90;;;;;;5051967;28;20168;-81
2022/11/03 10:39:46;;;;;;;2.10;1.17;;;13.50;99.90;;;;;;5034316;28;20180;-81
2022/11/03 10:42:17;;;;;;;3.92;1.67;;;13.40;99.90;;;;;;5034248;28;20294;-80
2022/11/03 10:44:42;;;;;;;5.90;1.58;;;13.40;99.90;;;;;;5052298;28;20195;-79
2022/11/03 10:47:24;;;;;;;1.45;1.35;;;13.40;99.90;;;;;;5034634;28;20172;-80
2022/11/03 10:49:50;;;;;;;3.75;1.85;;;13.60;99.90;;;;;;5052244;28;20167;-80
2022/11/03 10:52:21;;;;;;;3.17;0.98;;;13.50;99.90;;;;;;5052281;28;20203;-81
2022/11/03 10:54:48;;;;;;;2.47;0.85;;;13.40;99.90;;;;;;5052449;28;20231;-80
2022/11/03 10:57:14;;;;;;;3.90;1.90;;;13.50;99.90;;;;;;5052292;28;20657;-81
2022/11/03 10:59:41;;;;;;;1.70;1.17;;;13.50;99.90;;;;;;5035093;28;20234;-80
2022/11/03 11:02:23;;;;;;;2.00;1.05;;;13.40;99.90;;;;;;5056251;28;20303;-81
2022/11/03 11:04:58;;;;;;;3.63;1.88;;;13.40;99.90;;;;;;5057216;28;20179;-80
2022/11/03 11:07:33;;;;;;;2.15;1.13;;;13.50;99.90;;;;;;5056993;28;20160;-82
2022/11/03 11:10:27;;;;;;;3.50;1.40;;;13.60;99.90;;;;;;5056601;28;20159;-80
2022/11/03 11:13:11;;;;;;;6.82;1.23;;;13.60;99.90;;;;;;5056532;28;20297;-80
2022/11/03 11:15:47;;;;;;;5.18;1.35;;;13.80;99.90;;;;;;5056296;28;20182;-80
2022/11/03 11:18:27;;;;;;;12.65;1.45;;;13.70;99.90;;;;;;5056711;28;20182;-85
2022/11/03 11:20:54;;;;;;;2.90;1.10;;;13.70;99.90;;;;;;5056485;28;20213;-80
2022/11/03 11:23:28;;;;;;;4.45;1.20;;;13.70;99.90;;;;;;5056382;28;20265;-81
2022/11/03 11:26:09;;;;;;;4.38;1.40;;;13.60;99.90;;;;;;5056715;28;20179;-81
2022/11/03 11:28:36;;;;;;;8.02;1.08;;;13.40;99.90;;;;;;5056274;28;20176;-82
2022/11/03 11:31:22;;;;;;;4.45;1.55;;;13.30;99.90;;;;;;5056389;28;20183;-81
2022/11/03 11:33:48;;;;;;;6.75;1.33;;;13.30;99.90;;;;;;5056737;28;20202;-81
2022/11/03 11:36:23;;;;;;;3.30;1.63;;;13.60;99.90;;;;;;5056377;28;20180;-81
2022/11/03 11:38:54;;;;;;;4.80;1.40;;;13.60;99.90;;;;;;5056686;28;20636;-82
2022/11/03 11:41:38;;;;;;;4.88;1.17;;;13.60;99.90;;;;;;5056403;28;20218;-82
2022/11/03 11:44:41;;;;;;;1.50;1.15;;;13.50;99.90;;;;;;5056199;28;20172;-81
2022/11/03 11:47:50;;;;;;;5.22;1.38;;;13.60;99.90;;;;;;5056278;28;20262;-81
2022/11/03 11:50:21;;;;;;;2.63;1.25;;;13.50;99.90;;;;;;5028878;28;20191;-82
2022/11/03 11:52:52;;;;;;;1.90;1.20;;;13.40;99.90;;;;;;5055916;28;20176;-81
2022/11/03 11:55:24;;;;;;;2.45;1.25;;;13.60;99.90;;;;;;5055882;28;20188;-82
2022/11/03 11:57:50;;;;;;;4.82;1.30;;;13.60;99.90;;;;;;5055831;28;20728;-81
2022/11/03 12:00:23;;;;;;;1.50;1.30;;;13.70;99.90;;;;;;5056043;28;20184;-80
2022/11/03 12:02:50;;;;;;;5.55;1.23;;;13.70;99.90;;;;;;5055995;28;20664;-81
2022/11/03 12:05:26;;;;;;;1.13;1.02;;;13.80;99.90;;;;;;5038149;28;20559;-81
2022/11/03 12:07:53;;;;;;;5.28;1.25;;;14.00;99.90;;;;;;5055800;28;20240;-83
2022/11/03 12:10:27;;;;;;;2.35;1.27;;;14.20;99.90;;;;;;5021088;28;20188;-82
2022/11/03 12:12:58;;;;;;;4.07;1.48;;;14.40;99.90;;;;;;5036316;28;20190;-80
2022/11/03 12:15:56;;;;;;;3.38;1.45;;;14.30;99.90;;;;;;5037900;28;20184;-81
2022/11/03 12:18:29;;;;;;;1.90;1.05;;;14.20;99.90;;;;;;5037282;28;20321;-82
2022/11/03 12:20:54;;;;;;;1.73;1.25;;;14.20;99.90;;;;;;5054935;28;20246;-81
2022/11/03 12:23:34;;;;;;;2.60;1.35;;;14.50;99.90;;;;;;5055219;28;20290;-81
2022/11/03 12:26:01;;;;;;;9.40;1.55;;;14.70;99.90;;;;;;5037893;28;20226;-80
2022/11/03 12:28:31;;;;;;;6.63;1.13;;;14.80;99.90;;;;;;5055378;28;20640;-80
2022/11/03 12:30:56;;;;;;;1.48;1.05;;;14.70;98.70;;;;;;5055529;28;20172;-80
2022/11/03 12:33:22;;;;;;;3.60;1.55;;;14.60;99.10;;;;;;5055353;28;20180;-82
2022/11/03 12:35:48;;;;;;;6.10;1.92;;;14.80;99.90;;;;;;5021169;28;20266;-81
2022/11/03 12:38:13;;;;;;;4.85;1.25;;;14.80;99.00;;;;;;5037515;28;20609;-81
2022/11/03 12:40:39;;;;;;;5.70;1.25;;;14.80;98.90;;;;;;5055248;28;20707;-81
2022/11/03 12:43:04;;;;;;;2.47;1.27;;;15.10;98.60;;;;;;5055277;28;20295;-79
2022/11/03 12:45:30;;;;;;;3.45;1.38;;;15.30;98.40;;;;;;5037426;28;20263;-81
2022/11/03 12:47:56;;;;;;;2.65;1.35;;;15.40;98.50;;;;;;5037215;28;20274;-81
2022/11/03 12:50:21;;;;;;;3.65;1.42;;;15.60;97.90;;;;;;5054384;28;20226;-82
2022/11/03 12:52:47;;;;;;;6.63;1.30;;;16.00;98.80;;;;;;5004221;28;20194;-82
2022/11/03 12:55:13;;;;;;;5.88;1.50;;;16.20;97.00;;;;;;5054461;28;20226;-81
2022/11/03 12:57:38;;;;;;;2.88;1.20;;;16.70;94.40;;;;;;5054034;28;20249;-82
2022/11/03 13:00:05;;;;;;;8.77;1.60;;;17.10;92.90;;;;;;5054837;28;20176;-81
2022/11/03 13:02:30;;;;;;;2.40;1.45;;;17.10;90.80;;;;;;5054636;28;20261;-82
2022/11/03 13:04:56;;;;;;;2.95;1.50;;;17.50;89.30;;;;;;5054508;28;20180;-83
2022/11/03 13:07:22;;;;;;;3.90;1.40;;;17.90;88.00;;;;;;5036421;28;20176;-81
2022/11/03 13:09:47;;;;;;;4.90;1.50;;;18.80;83.60;;;;;;5054129;28;20172;-81
2022/11/03 13:12:31;;;;;;;4.68;1.15;;;19.10;81.00;;;;;;5036263;28;20253;-82
2022/11/03 13:15:02;;;;;;;3.28;1.50;;;19.50;79.60;;;;;;5038057;28;20187;-80
2022/11/03 13:17:28;;;;;;;2.35;1.70;;;19.70;78.20;;;;;;5053411;28;20267;-81
2022/11/03 13:19:54;;;;;;;5.80;2.03;;;19.70;76.10;;;;;;5035789;28;20263;-81
2022/11/03 13:22:20;;;;;;;2.17;0.80;;;19.50;77.10;;;;;;5035419;28;20207;-80
2022/11/03 13:24:45;;;;;;;4.55;1.95;;;19.40;73.50;;;;;;5035229;28;20852;-82
2022/11/03 13:27:11;;;;;;;4.75;1.13;;;19.50;74.90;;;;;;5035114;28;20589;-81
2022/11/03 13:29:37;;;;;;;4.25;1.83;;;19.40;73.30;;;;;;5036161;28;20178;-81